createdAt,value
2019-01-21T00:00:32.691Z,-1.20
2019-01-21T00:03:01.586Z,-1.10
2019-01-21T00:05:30.273Z,-1.10
2019-01-21T00:07:58.919Z,-1.10
2019-01-21T00:10:27.494Z,-1.00
2019-01-21T00:12:56.144Z,-1.00
2019-01-21T00:15:24.802Z,-1.00
2019-01-21T00:17:53.363Z,-1.00
2019-01-21T00:20:21.886Z,-1.00
2019-01-21T00:22:50.607Z,-1.10
2019-01-21T00:25:19.248Z,-1.10
2019-01-21T00:27:47.757Z,-1.10
2019-01-21T00:30:16.313Z,-1.10
2019-01-21T00:32:44.816Z,-1.10
2019-01-21T00:35:13.446Z,-1.10
2019-01-21T00:37:42.049Z,-1.10
2019-01-21T00:40:13.265Z,-1.10
2019-01-21T00:42:41.728Z,-1.10
2019-01-21T00:45:10.444Z,-1.10
2019-01-21T00:47:39.096Z,-1.10
2019-01-21T00:50:10.353Z,-1.10
2019-01-21T00:52:38.929Z,-1.20
2019-01-21T00:55:09.962Z,-1.10
2019-01-21T00:57:38.508Z,-1.10
2019-01-21T01:00:10.170Z,-1.00
2019-01-21T01:02:43.938Z,-1.10
2019-01-21T01:05:12.725Z,-1.20
2019-01-21T01:07:41.439Z,-1.20
2019-01-21T01:10:12.418Z,-1.20
2019-01-21T01:12:40.891Z,-1.20
2019-01-21T01:15:12.668Z,-1.20
2019-01-21T01:17:41.321Z,-1.20
2019-01-21T01:20:15.830Z,-1.20
2019-01-21T01:22:44.474Z,-1.30
2019-01-21T01:25:13.473Z,-1.30
2019-01-21T01:27:42.213Z,-1.40
2019-01-21T01:30:13.621Z,-1.40
2019-01-21T01:32:42.117Z,-1.40
2019-01-21T01:35:12.325Z,-1.40
2019-01-21T01:37:41.041Z,-1.30
2019-01-21T01:40:12.358Z,-1.30
2019-01-21T01:42:40.900Z,-1.20
2019-01-21T01:45:12.684Z,-1.20
2019-01-21T01:47:44.775Z,-1.10
2019-01-21T01:50:11.675Z,-1.10
2019-01-21T01:52:40.288Z,-1.00
2019-01-21T01:55:10.712Z,-1.00
2019-01-21T01:57:39.365Z,-1.00
2019-01-21T02:00:11.843Z,-1.00
2019-01-21T02:02:40.518Z,-1.00
2019-01-21T02:05:09.358Z,-1.00
2019-01-21T02:07:37.979Z,-1.00
2019-01-21T02:10:09.833Z,-1.00
2019-01-21T02:12:38.410Z,-0.90
2019-01-21T02:15:26.342Z,-0.90
2019-01-21T02:17:54.948Z,-0.90
2019-01-21T02:20:23.572Z,-0.90
2019-01-21T02:22:54.749Z,-0.90
2019-01-21T02:25:25.820Z,-0.90
2019-01-21T02:28:29.182Z,-0.90
2019-01-21T02:31:06.571Z,-0.90
2019-01-21T02:33:50.264Z,-0.80
2019-01-21T02:36:42.985Z,-0.80
2019-01-21T02:39:29.683Z,-0.80
2019-01-21T02:42:01.296Z,-0.80
2019-01-21T02:45:02.071Z,-0.90
2019-01-21T02:47:39.390Z,-0.90
2019-01-21T02:50:28.289Z,-1.00
2019-01-21T02:53:19.426Z,-1.10
2019-01-21T02:56:21.894Z,-1.10
2019-01-21T02:58:59.406Z,-1.10
2019-01-21T03:01:40.169Z,-1.10
2019-01-21T03:04:17.887Z,-1.10
2019-01-21T03:06:52.264Z,-1.00
2019-01-21T03:09:32.493Z,-1.00
2019-01-21T03:12:06.581Z,-1.00
2019-01-21T03:14:41.295Z,-0.90
2019-01-21T03:17:46.234Z,-0.90
2019-01-21T03:20:17.886Z,-0.90
2019-01-21T03:22:52.109Z,-0.90
2019-01-21T03:25:23.680Z,-0.90
2019-01-21T03:28:23.681Z,-0.90
2019-01-21T03:31:13.351Z,-1.00
2019-01-21T03:34:03.126Z,-1.00
2019-01-21T03:36:34.784Z,-1.00
2019-01-21T03:39:21.259Z,-1.00
2019-01-21T03:42:01.715Z,-1.10
2019-01-21T03:44:51.625Z,-1.10
2019-01-21T03:47:28.974Z,-1.20
2019-01-21T03:50:00.627Z,-1.20
2019-01-21T03:53:04.135Z,-1.10
2019-01-21T03:55:33.071Z,-1.10
2019-01-21T03:58:10.753Z,-1.00
2019-01-21T04:00:53.604Z,-1.00
2019-01-21T04:03:37.018Z,-1.00
2019-01-21T04:06:11.660Z,-1.00
2019-01-21T04:08:45.822Z,-0.90
2019-01-21T04:11:28.896Z,-0.90
2019-01-21T04:14:24.290Z,-0.90
2019-01-21T04:17:04.445Z,-0.90
2019-01-21T04:19:50.955Z,-0.80
2019-01-21T04:22:34.374Z,-0.80
2019-01-21T04:25:14.856Z,-0.80
2019-01-21T04:27:52.145Z,-0.80
2019-01-21T04:30:32.794Z,-0.90
2019-01-21T04:33:12.957Z,-0.90
2019-01-21T04:36:04.094Z,-0.90
2019-01-21T04:38:53.877Z,-0.90
2019-01-21T04:41:34.475Z,-0.90
2019-01-21T04:44:25.335Z,-0.90
2019-01-21T04:47:15.546Z,-0.80
2019-01-21T04:49:59.257Z,-0.80
2019-01-21T04:52:36.950Z,-0.90
2019-01-21T04:55:14.140Z,-0.90
2019-01-21T04:57:51.678Z,-0.90
2019-01-21T05:00:46.250Z,-0.90
2019-01-21T05:03:17.909Z,-0.90
2019-01-21T05:06:23.116Z,-0.90
2019-01-21T05:09:09.394Z,-0.90
2019-01-21T05:11:52.922Z,-1.00
2019-01-21T05:14:24.571Z,-1.00
2019-01-21T05:17:17.323Z,-1.00
2019-01-21T05:20:22.549Z,-1.00
2019-01-21T05:23:05.551Z,-0.90
2019-01-21T05:25:43.025Z,-0.90
2019-01-21T05:28:26.475Z,-0.90
2019-01-21T05:31:22.074Z,-0.90
2019-01-21T05:34:14.968Z,-0.90
2019-01-21T05:37:01.424Z,-0.90
2019-01-21T05:39:41.793Z,-0.90
2019-01-21T05:42:48.174Z,-0.90
2019-01-21T05:45:22.539Z,-0.90
2019-01-21T05:48:05.752Z,-0.80
2019-01-21T05:50:42.608Z,-0.80
2019-01-21T05:53:42.775Z,-0.80
2019-01-21T05:56:38.683Z,-0.70
2019-01-21T05:59:22.111Z,-0.80
2019-01-21T06:02:02.608Z,-0.70
2019-01-21T06:04:43.200Z,-0.80
2019-01-21T06:07:17.498Z,-0.80
2019-01-21T06:10:00.753Z,-0.70
2019-01-21T06:12:38.119Z,-0.70
2019-01-21T06:15:12.430Z,-0.70
2019-01-21T06:17:56.228Z,-0.70
2019-01-21T06:20:47.187Z,-0.60
2019-01-21T06:23:21.612Z,-0.60
2019-01-21T06:25:56.095Z,-0.60
2019-01-21T06:28:45.380Z,-0.60
2019-01-21T06:31:19.692Z,-0.60
2019-01-21T06:34:07.636Z,-0.50
2019-01-21T06:36:50.823Z,-0.60
2019-01-21T06:39:52.462Z,-0.50
2019-01-21T06:42:39.045Z,-0.60
2019-01-21T06:45:25.190Z,-0.60
2019-01-21T06:48:31.602Z,-0.60
2019-01-21T06:51:21.261Z,-0.60
2019-01-21T06:54:10.576Z,-0.70
2019-01-21T06:56:57.116Z,-0.70
2019-01-21T06:59:34.224Z,-0.70
2019-01-21T07:02:08.405Z,-0.70
2019-01-21T07:04:40.070Z,-0.70
2019-01-21T07:07:28.345Z,-0.70
2019-01-21T07:10:15.013Z,-0.70
2019-01-21T07:12:46.620Z,-0.60
2019-01-21T07:15:36.392Z,-0.60
2019-01-21T07:18:19.765Z,-0.60
2019-01-21T07:20:57.021Z,-0.50
2019-01-21T07:23:43.273Z,-0.60
2019-01-21T07:26:14.943Z,-0.50
2019-01-21T07:28:52.037Z,-0.60
2019-01-21T07:31:29.062Z,-0.50
2019-01-21T07:34:03.659Z,-0.50
2019-01-21T07:36:47.314Z,-0.50
2019-01-21T07:39:18.928Z,-0.50
2019-01-21T07:42:05.834Z,-0.50
2019-01-21T07:44:55.172Z,-0.50
2019-01-21T07:47:38.556Z,-0.50
2019-01-21T07:50:13.112Z,-0.40
2019-01-21T07:52:53.533Z,-0.40
2019-01-21T07:55:30.942Z,-0.40
2019-01-21T07:58:05.496Z,-0.40
2019-01-21T08:00:39.654Z,-0.30
2019-01-21T08:03:17.315Z,-0.30
2019-01-21T08:05:51.642Z,-0.30
2019-01-21T08:08:32.029Z,-0.20
2019-01-21T08:11:18.713Z,-0.20
2019-01-21T08:13:55.450Z,-0.10
2019-01-21T08:16:52.457Z,-0.10
2019-01-21T08:19:32.632Z,-0.10
2019-01-21T08:22:16.074Z,0.00
2019-01-21T08:24:52.977Z,0.00
2019-01-21T08:27:41.161Z,0.00
2019-01-21T08:30:33.980Z,0.10
2019-01-21T08:33:37.449Z,0.10
2019-01-21T08:36:17.843Z,0.20
2019-01-21T08:39:09.201Z,0.30
2019-01-21T08:41:47.007Z,0.40
2019-01-21T08:44:30.754Z,0.40
2019-01-21T08:47:11.093Z,0.50
2019-01-21T08:49:45.593Z,0.60
2019-01-21T08:52:32.106Z,0.70
2019-01-21T08:55:18.061Z,0.70
2019-01-21T08:58:22.842Z,0.80
2019-01-21T09:01:15.712Z,0.80
2019-01-21T09:03:56.049Z,0.90
2019-01-21T09:06:39.348Z,0.90
2019-01-21T09:09:31.732Z,1.00
2019-01-21T09:12:25.520Z,1.00
2019-01-21T09:14:59.809Z,1.10
2019-01-21T09:17:37.009Z,1.20
2019-01-21T09:20:17.556Z,1.20
2019-01-21T09:23:24.179Z,1.30
2019-01-21T09:25:55.796Z,1.30
2019-01-21T09:28:30.297Z,1.40
2019-01-21T09:31:16.804Z,1.40
2019-01-21T09:34:03.487Z,1.40
2019-01-21T09:36:37.813Z,1.50
2019-01-21T09:39:12.341Z,1.60
2019-01-21T09:42:01.575Z,1.70
2019-01-21T09:44:35.873Z,1.70
2019-01-21T09:47:03.273Z,1.80
2019-01-21T09:49:30.712Z,1.80
2019-01-21T09:52:01.810Z,1.80
2019-01-21T09:54:30.465Z,1.90
2019-01-21T09:56:59.167Z,1.90
2019-01-21T09:59:27.818Z,1.90
2019-01-21T10:02:02.109Z,2.00
2019-01-21T10:04:33.693Z,2.00
2019-01-21T10:07:16.329Z,2.00
2019-01-21T10:09:55.339Z,1.90
2019-01-21T10:12:50.873Z,2.00
2019-01-21T10:15:28.029Z,2.10
2019-01-21T10:18:08.378Z,2.10
2019-01-21T10:20:39.946Z,2.10
2019-01-21T10:23:29.452Z,2.20
2019-01-21T10:26:00.998Z,2.20
2019-01-21T10:29:02.755Z,2.20
2019-01-21T10:31:34.288Z,2.20
2019-01-21T10:34:23.880Z,2.30
2019-01-21T10:37:04.403Z,2.30
2019-01-21T10:39:50.666Z,2.30
2019-01-21T10:42:41.721Z,2.30
2019-01-21T10:45:28.334Z,2.40
2019-01-21T10:48:14.212Z,2.40
2019-01-21T10:50:51.445Z,2.40
2019-01-21T10:53:31.570Z,2.50
2019-01-21T10:56:21.020Z,2.50
2019-01-21T10:59:01.592Z,2.50
2019-01-21T11:01:52.550Z,2.60
2019-01-21T11:04:38.973Z,2.60
2019-01-21T11:07:45.316Z,2.60
2019-01-21T11:10:22.356Z,2.60
2019-01-21T11:12:56.768Z,2.70
2019-01-21T11:15:34.664Z,2.70
2019-01-21T11:18:06.342Z,2.80
2019-01-21T11:20:46.673Z,2.90
2019-01-21T11:23:33.116Z,2.90
2019-01-21T11:26:22.668Z,3.00
2019-01-21T11:29:11.825Z,3.00
2019-01-21T11:31:46.121Z,3.10
2019-01-21T11:34:23.590Z,3.10
2019-01-21T11:37:01.034Z,3.20
2019-01-21T11:39:41.389Z,3.30
2019-01-21T11:42:24.940Z,3.50
2019-01-21T11:45:20.428Z,3.60
2019-01-21T11:48:09.730Z,3.90
2019-01-21T11:50:53.442Z,4.10
2019-01-21T11:53:27.844Z,4.20
2019-01-21T11:55:59.405Z,4.20
2019-01-21T11:58:37.943Z,4.30
2019-01-21T12:01:26.057Z,4.40
2019-01-21T12:04:00.432Z,4.40
2019-01-21T12:06:35.829Z,4.30
2019-01-21T12:09:10.216Z,4.20
2019-01-21T12:11:53.548Z,4.20
2019-01-21T12:14:33.892Z,4.10
2019-01-21T12:17:26.665Z,4.00
2019-01-21T12:20:23.769Z,3.90
2019-01-21T12:22:59.511Z,3.90
2019-01-21T12:25:33.943Z,3.80
2019-01-21T12:28:08.012Z,3.70
2019-01-21T12:30:48.372Z,3.80
2019-01-21T12:33:25.718Z,3.80
2019-01-21T12:36:06.137Z,3.80
2019-01-21T12:38:58.869Z,3.80
2019-01-21T12:41:42.277Z,3.80
2019-01-21T12:44:28.981Z,3.80
2019-01-21T12:47:06.351Z,3.70
2019-01-21T12:49:43.769Z,3.50
2019-01-21T12:52:15.318Z,3.50
2019-01-21T12:54:56.610Z,3.40
2019-01-21T12:57:36.800Z,3.40
2019-01-21T13:00:29.730Z,3.50
2019-01-21T13:03:25.095Z,3.50
2019-01-21T13:06:19.176Z,3.50
2019-01-21T13:08:56.344Z,3.50
2019-01-21T13:11:27.881Z,3.50
2019-01-21T13:14:08.454Z,3.50
2019-01-21T13:16:40.004Z,3.50
2019-01-21T13:19:11.700Z,3.40
2019-01-21T13:21:58.204Z,3.40
2019-01-21T13:24:35.716Z,3.30
2019-01-21T13:27:10.217Z,3.30
2019-01-21T13:29:41.757Z,3.30
2019-01-21T13:32:22.058Z,3.30
2019-01-21T13:35:10.121Z,3.30
2019-01-21T13:37:47.217Z,3.40
2019-01-21T13:40:39.665Z,3.40
2019-01-21T13:43:16.800Z,3.40
2019-01-21T13:45:57.040Z,3.50
2019-01-21T13:48:31.420Z,3.50
2019-01-21T13:51:03.000Z,3.50
2019-01-21T13:53:34.625Z,3.50
2019-01-21T13:56:31.613Z,3.50
2019-01-21T13:59:32.853Z,3.50
2019-01-21T14:02:04.401Z,3.40
2019-01-21T14:04:35.981Z,3.40
2019-01-21T14:07:25.548Z,3.40
2019-01-21T14:09:59.779Z,3.40
2019-01-21T14:12:40.078Z,3.40
2019-01-21T14:15:31.239Z,3.40
2019-01-21T14:18:23.608Z,3.40
2019-01-21T14:21:01.049Z,3.30
2019-01-21T14:23:35.311Z,3.30
2019-01-21T14:26:13.079Z,3.30
2019-01-21T14:28:56.809Z,3.30
2019-01-21T14:31:51.044Z,3.30
2019-01-21T14:34:51.498Z,3.30
2019-01-21T14:37:25.844Z,3.20
2019-01-21T14:39:57.401Z,3.20
2019-01-21T14:42:40.685Z,3.20
2019-01-21T14:45:17.957Z,3.20
2019-01-21T14:47:52.060Z,3.10
2019-01-21T14:50:34.929Z,3.10
2019-01-21T14:53:14.926Z,3.10
2019-01-21T14:55:52.367Z,3.00
2019-01-21T14:58:55.549Z,2.90
2019-01-21T15:01:27.193Z,2.90
2019-01-21T15:04:10.662Z,2.90
2019-01-21T15:06:57.362Z,2.90
2019-01-21T15:10:02.150Z,2.80
2019-01-21T15:12:36.357Z,2.80
2019-01-21T15:15:36.891Z,2.70
2019-01-21T15:18:14.103Z,2.60
2019-01-21T15:21:00.675Z,2.60
2019-01-21T15:23:40.976Z,2.60
2019-01-21T15:26:33.047Z,2.50
2019-01-21T15:29:26.108Z,2.60
2019-01-21T15:32:09.429Z,2.50
2019-01-21T15:34:57.747Z,2.40
2019-01-21T15:37:38.149Z,2.40
2019-01-21T15:40:12.257Z,2.40
2019-01-21T15:42:49.319Z,2.40
2019-01-21T15:45:32.987Z,2.40
2019-01-21T15:48:19.456Z,2.40
2019-01-21T15:51:06.289Z,2.40
2019-01-21T15:53:49.841Z,2.40
2019-01-21T15:56:36.288Z,2.30
2019-01-21T15:59:10.376Z,2.30
2019-01-21T16:01:50.763Z,2.30
2019-01-21T16:04:40.225Z,2.20
2019-01-21T16:07:20.754Z,2.20
2019-01-21T16:10:01.017Z,2.20
2019-01-21T16:12:53.724Z,2.20
2019-01-21T16:15:56.929Z,2.10
2019-01-21T16:18:31.274Z,2.00
2019-01-21T16:21:35.955Z,2.00
2019-01-21T16:24:23.927Z,1.90
2019-01-21T16:27:12.057Z,1.80
2019-01-21T16:29:52.852Z,1.80
2019-01-21T16:32:23.265Z,1.70
2019-01-21T16:35:00.036Z,1.70
2019-01-21T16:37:31.582Z,1.70
2019-01-21T16:40:10.296Z,1.60
2019-01-21T16:42:38.757Z,1.60
2019-01-21T16:45:07.391Z,1.60
2019-01-21T16:47:35.884Z,1.60
2019-01-21T16:50:06.562Z,1.60
2019-01-21T16:52:36.859Z,1.50
2019-01-21T16:55:07.355Z,1.50
2019-01-21T16:57:35.812Z,1.40
2019-01-21T17:00:10.241Z,1.40
2019-01-21T17:02:40.244Z,1.40
2019-01-21T17:05:11.658Z,1.50
2019-01-21T17:07:40.334Z,1.50
2019-01-21T17:10:12.866Z,1.50
2019-01-21T17:12:41.471Z,1.50
2019-01-21T17:15:12.823Z,1.40
2019-01-21T17:17:41.646Z,1.40
2019-01-21T17:20:19.195Z,1.40
2019-01-21T17:22:47.849Z,1.40
2019-01-21T17:25:16.518Z,1.40
2019-01-21T17:27:45.095Z,1.30
2019-01-21T17:30:16.117Z,1.30
2019-01-21T17:32:44.657Z,1.30
2019-01-21T17:35:14.880Z,1.30
2019-01-21T17:37:43.430Z,1.30
2019-01-21T17:40:15.345Z,1.30
2019-01-21T17:42:43.818Z,1.30
2019-01-21T17:45:15.512Z,1.30
2019-01-21T17:47:44.192Z,1.30
2019-01-21T17:50:15.654Z,1.20
2019-01-21T17:52:44.269Z,1.20
2019-01-21T17:55:13.677Z,1.10
2019-01-21T17:57:42.237Z,1.10
2019-01-21T18:00:18.169Z,1.20
2019-01-21T18:02:46.651Z,1.20
2019-01-21T18:05:16.968Z,1.20
2019-01-21T18:07:45.457Z,1.20
2019-01-21T18:10:16.753Z,1.20
2019-01-21T18:12:45.572Z,1.10
2019-01-21T18:15:14.917Z,1.00
2019-01-21T18:17:43.467Z,1.00
2019-01-21T18:20:15.477Z,1.00
2019-01-21T18:22:43.964Z,1.00
2019-01-21T18:25:13.256Z,1.00
2019-01-21T18:27:41.914Z,1.00
2019-01-21T18:30:13.889Z,1.00
2019-01-21T18:32:42.345Z,1.00
2019-01-21T18:35:12.280Z,0.90
2019-01-21T18:37:40.844Z,0.90
2019-01-21T18:40:12.412Z,0.80
2019-01-21T18:42:40.989Z,0.80
2019-01-21T18:45:12.507Z,0.80
2019-01-21T18:47:41.200Z,0.70
2019-01-21T18:50:11.702Z,0.60
2019-01-21T18:52:40.437Z,0.60
2019-01-21T18:55:09.952Z,0.60
2019-01-21T18:57:38.431Z,0.60
2019-01-21T19:00:10.014Z,0.60
2019-01-21T19:02:38.484Z,0.50
2019-01-21T19:05:08.485Z,0.50
2019-01-21T19:07:36.989Z,0.50
2019-01-21T19:10:11.274Z,0.50
2019-01-21T19:12:39.740Z,0.50
2019-01-21T19:15:14.273Z,0.50
2019-01-21T19:17:42.738Z,0.50
2019-01-21T19:20:13.432Z,0.50
2019-01-21T19:22:42.009Z,0.50
2019-01-21T19:25:11.711Z,0.50
2019-01-21T19:27:40.190Z,0.50
2019-01-21T19:30:17.689Z,0.50
2019-01-21T19:32:46.237Z,0.50
2019-01-21T19:35:17.978Z,0.50
2019-01-21T19:37:46.443Z,0.50
2019-01-21T19:40:20.082Z,0.50
2019-01-21T19:42:48.686Z,0.40
2019-01-21T19:45:17.463Z,0.30
2019-01-21T19:47:46.025Z,0.30
2019-01-21T19:50:22.753Z,0.30
2019-01-21T19:52:51.292Z,0.30
2019-01-21T19:55:28.964Z,0.30
2019-01-21T19:57:59.831Z,0.20
2019-01-21T20:00:28.384Z,0.20
2019-01-21T20:02:56.859Z,0.10
2019-01-21T20:05:25.443Z,0.10
2019-01-21T20:07:53.905Z,0.10
2019-01-21T20:10:24.382Z,0.10
2019-01-21T20:12:53.223Z,0.10
2019-01-21T20:15:21.923Z,0.10
2019-01-21T20:17:50.515Z,0.10
2019-01-21T20:20:22.599Z,0.00
2019-01-21T20:22:57.207Z,0.00
2019-01-21T20:25:21.533Z,0.00
2019-01-21T20:27:50.218Z,0.00
2019-01-21T20:30:21.307Z,0.00
2019-01-21T20:32:49.943Z,-0.10
2019-01-21T20:35:18.733Z,0.00
2019-01-21T20:37:47.417Z,0.00
2019-01-21T20:40:21.873Z,-0.10
2019-01-21T20:42:50.598Z,-0.10
2019-01-21T20:45:19.313Z,-0.10
2019-01-21T20:47:48.058Z,-0.20
2019-01-21T20:50:19.497Z,-0.20
2019-01-21T20:52:48.248Z,-0.20
2019-01-21T20:55:17.955Z,-0.20
2019-01-21T20:57:46.607Z,-0.20
2019-01-21T21:00:21.317Z,-0.30
2019-01-21T21:02:49.994Z,-0.30
2019-01-21T21:05:18.634Z,-0.40
2019-01-21T21:07:47.338Z,-0.40
2019-01-21T21:10:16.079Z,-0.40
2019-01-21T21:12:44.734Z,-0.40
2019-01-21T21:15:19.377Z,-0.30
2019-01-21T21:17:48.112Z,-0.40
2019-01-21T21:20:16.890Z,-0.50
2019-01-21T21:22:45.546Z,-0.60
2019-01-21T21:25:17.250Z,-0.60
2019-01-21T21:27:45.953Z,-0.60
2019-01-21T21:30:20.473Z,-0.60
2019-01-21T21:32:49.170Z,-0.50
2019-01-21T21:35:18.584Z,-0.50
2019-01-21T21:37:47.312Z,-0.40
2019-01-21T21:40:18.435Z,-0.40
2019-01-21T21:42:47.081Z,-0.40
2019-01-21T21:45:18.374Z,-0.40
2019-01-21T21:47:47.053Z,-0.50
2019-01-21T21:50:24.693Z,-0.50
2019-01-21T21:52:53.511Z,-0.50
2019-01-21T21:55:22.149Z,-0.60
2019-01-21T21:57:50.848Z,-0.60
2019-01-21T22:00:22.211Z,-0.60
2019-01-21T22:02:51.295Z,-0.60
2019-01-21T22:05:20.897Z,-0.60
2019-01-21T22:07:49.630Z,-0.60
2019-01-21T22:10:20.617Z,-0.70
2019-01-21T22:12:50.485Z,-0.70
2019-01-21T22:15:21.158Z,-0.70
2019-01-21T22:17:49.828Z,-0.70
2019-01-21T22:20:20.534Z,-0.70
2019-01-21T22:22:49.268Z,-0.70
2019-01-21T22:25:18.665Z,-0.70
2019-01-21T22:27:47.383Z,-0.70
2019-01-21T22:30:19.202Z,-0.60
2019-01-21T22:32:47.873Z,-0.60
2019-01-21T22:35:16.530Z,-0.60
2019-01-21T22:37:45.657Z,-0.60
2019-01-21T22:40:16.449Z,-0.60
2019-01-21T22:42:45.112Z,-0.60
2019-01-21T22:45:15.697Z,-0.50
2019-01-21T22:47:44.409Z,-0.40
2019-01-21T22:50:15.192Z,-0.40
2019-01-21T22:52:43.926Z,-0.40
2019-01-21T22:55:14.526Z,-0.40
2019-01-21T22:57:43.253Z,-0.40
2019-01-21T23:00:31.139Z,-0.40
2019-01-21T23:02:59.790Z,-0.40
2019-01-21T23:05:28.483Z,-0.40
2019-01-21T23:07:57.111Z,-0.40
2019-01-21T23:10:25.825Z,-0.50
2019-01-21T23:12:55.241Z,-0.50
2019-01-21T23:15:23.902Z,-0.60
2019-01-21T23:17:52.538Z,-0.60
2019-01-21T23:20:21.282Z,-0.60
2019-01-21T23:22:49.935Z,-0.60
2019-01-21T23:25:18.670Z,-0.60
2019-01-21T23:27:47.300Z,-0.60
2019-01-21T23:30:19.169Z,-0.60
2019-01-21T23:32:47.845Z,-0.70
2019-01-21T23:35:18.086Z,-0.70
2019-01-21T23:37:47.014Z,-0.70
2019-01-21T23:40:15.822Z,-0.70
2019-01-21T23:42:44.529Z,-0.70
2019-01-21T23:45:13.311Z,-0.70
2019-01-21T23:47:41.973Z,-0.80
2019-01-21T23:50:13.170Z,-0.70
2019-01-21T23:52:42.030Z,-0.70
2019-01-21T23:55:12.422Z,-0.70
2019-01-21T23:57:41.132Z,-0.70
